Historique des mesures à Cassis (13260), France
Quotidien Résumé Janvier 12, 2018 Unités:  Métrique/US    US   Métrique
« Précédent (Jour)
Suivant (Jour) »
Quotidien Hebdomadaire Mensuel Annuel Période au choix
  Maximum: Minimum: Moyenne:
Température: 32 °F /  TemperatureC °C 46.2 °F /  7.9 °C 49.5 °F /  9.7 °C
Point de rosée: 32 °F /  DewpointC °C 34.2 °F /  1.2 °C 36.9 °F /  2.7 °C
Humidité: Humidity % 51 % 58 %
Vitesse du vent: WindSpeedKMH mph /  0 km/h - 4 mph /  6.4 km/h
Rafales: WindSpeedGustKMH mph /  0 km/h - -
Vent:- - WNW
Pression: 0 in /  PressurehPa hPa 29.8 in /  1010.7 hPa -
Précipitations: 0 in /  0.0 mm    
Historical Graphs
 
 
Mesures pour : Janvier 12, 2018
Heure Temperature Point de rosée Pression Vent Vitesse du vent Rafales Humidité Pluie (par heure) Conditions
32 °F /  TemperatureC °C 32 °F /  DewpointC °C 0 in /  PressurehPa hPa Calm     Humidity % 0 in /  HourlyPrecipMM mm SoftwareType W/m2
01:12 47.1 °F /  8.4 °C 36.7 °F /  2.6 °C 29.8 in /  1010.7 hPa WNW 10.5 mph /  16.9 km/h 10.5 mph /  16.9 km/h 67 % 0 in /  0.0 mm open2300-1.11 W/m2
02:12 47.1 °F /  8.4 °C 36 °F /  2.2 °C 29.8 in /  1010.7 hPa NNW 4.3 mph /  6.9 km/h 4.3 mph /  6.9 km/h 65 % 0 in /  0.0 mm open2300-1.11 W/m2
03:12 48 °F /  8.9 °C 36 °F /  2.2 °C 29.9 in /  1011.1 hPa WNW 6.8 mph /  10.9 km/h 10.1 mph /  16.3 km/h 63 % 0 in /  0.0 mm open2300-1.11 W/m2
04:12 47.5 °F /  8.6 °C 35.4 °F /  1.9 °C 29.9 in /  1011.4 hPa NW 2.1 mph /  3.4 km/h 4.7 mph /  7.6 km/h 63 % 0 in /  0.0 mm open2300-1.11 W/m2
05:12 46.2 °F /  7.9 °C 35.4 °F /  1.9 °C 29.9 in /  1011.7 hPa Calm   1.1 mph /  1.8 km/h 66 % 0 in /  0.0 mm open2300-1.11 W/m2
06:12 46.8 °F /  8.2 °C 34.9 °F /  1.6 °C 29.9 in /  1011.7 hPa West 13.4 mph /  21.6 km/h 13.4 mph /  21.6 km/h 63 % 0 in /  0.0 mm open2300-1.11 W/m2
07:12 47.5 °F /  8.6 °C 34.3 °F /  1.3 °C 29.9 in /  1012.1 hPa NNW 8.2 mph /  13.2 km/h 10.1 mph /  16.3 km/h 60 % 0 in /  0.0 mm open2300-1.11 W/m2
08:12 47.3 °F /  8.5 °C 34.2 °F /  1.2 °C 29.9 in /  1012.8 hPa NNW 6.1 mph /  9.8 km/h 6.1 mph /  9.8 km/h 60 % 0 in /  0.0 mm open2300-1.11 W/m2
09:12 49.1 °F /  9.5 °C 34.5 °F /  1.4 °C 29.9 in /  1013.4 hPa Calm   6.8 mph /  10.9 km/h 57 % 0 in /  0.0 mm open2300-1.11 W/m2
10:12 49.6 °F /  9.8 °C 35.1 °F /  1.7 °C 29.9 in /  1014.1 hPa Calm   5.8 mph /  9.3 km/h 57 % 0 in /  0.0 mm open2300-1.11 W/m2
11:12 51.6 °F /  10.9 °C 36 °F /  2.2 °C 30 in /  1014.4 hPa NNE 1.1 mph /  1.8 km/h 4.7 mph /  7.6 km/h 55 % 0 in /  0.0 mm open2300-1.11 W/m2
12:12 53.8 °F /  12.1 °C 36 °F /  2.2 °C 29.9 in /  1014.1 hPa Calm   2.9 mph /  4.7 km/h 51 % 0 in /  0.0 mm open2300-1.11 W/m2
13:12 54.1 °F /  12.3 °C 38.7 °F /  3.7 °C 29.9 in /  1014.1 hPa WNW 16.6 mph /  26.7 km/h 16.6 mph /  26.7 km/h 56 % 0 in /  0.0 mm open2300-1.11 W/m2
14:12 55.2 °F /  12.9 °C 39.2 °F /  4.0 °C 29.9 in /  1014.1 hPa West 6.4 mph /  10.3 km/h 6.4 mph /  10.3 km/h 55 % 0 in /  0.0 mm open2300-1.11 W/m2
15:12 55.8 °F /  13.2 °C 39.7 °F /  4.3 °C 29.9 in /  1014.1 hPa NNW 6.4 mph /  10.3 km/h 13.4 mph /  21.6 km/h 55 % 0 in /  0.0 mm open2300-1.11 W/m2
17:12 53.8 °F /  12.1 °C 40.3 °F /  4.6 °C 30 in /  1015.1 hPa West 2.9 mph /  4.7 km/h 2.9 mph /  4.7 km/h 60 % 0 in /  0.0 mm open2300-1.11 W/m2
18:12 52.3 °F /  11.3 °C 39.7 °F /  4.3 °C 30 in /  1015.1 hPa WNW 1.1 mph /  1.8 km/h 1.8 mph /  2.9 km/h 62 % 0 in /  0.0 mm open2300-1.11 W/m2
19:12 51.6 °F /  10.9 °C 39.4 °F /  4.1 °C 30 in /  1015.8 hPa Calm     63 % 0 in /  0.0 mm open2300-1.11 W/m2
20:12 51.4 °F /  10.8 °C 39.2 °F /  4.0 °C 30 in /  1015.8 hPa Calm     63 % 0 in /  0.0 mm open2300-1.11 W/m2
21:12 50.7 °F /  10.4 °C 38.8 °F /  3.8 °C 30 in /  1016.5 hPa NNW 6.1 mph /  9.8 km/h 6.1 mph /  9.8 km/h 64 % 0 in /  0.0 mm open2300-1.11 W/m2
22:12 49.8 °F /  9.9 °C 38.5 °F /  3.6 °C 30 in /  1016.8 hPa Calm     65 % 0 in /  0.0 mm open2300-1.11 W/m2
23:12 48.9 °F /  9.4 °C 37.9 °F /  3.3 °C 30 in /  1017.2 hPa Calm     66 % 0 in /  0.0 mm open2300-1.11 W/m2
Observations météo à CASSIS
WU-History script by Weather Underground - 1 mb